Time;durP1;ratioP1;P1;durP2;ratioP2;P2;SDS_P1;SDS_P2;PMS_P1;PMS_P2;Temp;Humidity;BMP_temperature;BMP_pressure;BME280_temperature;BME280_humidity;BME280_pressure;Samples;Min_cycle;Max_cycle;Signal;HPM_P1;HPM_P2
2022/06/13 00:01:07;;;;;;;4.50;3.97;;;;;;;18.91;75.96;99183.44;5054429;28;20029;-70
2022/06/13 00:03:33;;;;;;;4.45;3.80;;;;;;;18.89;75.42;99183.03;5054586;28;20025;-70
2022/06/13 00:05:58;;;;;;;8.50;4.32;;;;;;;18.74;76.46;99176.50;5052128;28;20087;-70
2022/06/13 00:08:24;;;;;;;5.65;3.50;;;;;;;18.73;75.75;99188.25;5051801;28;20064;-70
2022/06/13 00:10:49;;;;;;;7.35;4.03;;;;;;;18.74;75.61;99187.84;5054318;28;20443;-70
2022/06/13 00:13:15;;;;;;;6.85;4.32;;;;;;;18.72;76.55;99176.09;5054309;28;20024;-70
2022/06/13 00:15:40;;;;;;;9.68;4.93;;;;;;;18.86;75.64;99174.53;5053708;28;20718;-70
2022/06/13 00:18:06;;;;;;;4.47;3.40;;;;;;;18.85;74.92;99176.56;5054060;28;20029;-70
2022/06/13 00:20:32;;;;;;;6.30;4.63;;;;;;;18.99;74.92;99181.44;5051881;28;20040;-70
2022/06/13 00:22:57;;;;;;;7.45;5.07;;;;;;;19.17;75.01;99181.53;5052355;28;20109;-70
2022/06/13 00:25:23;;;;;;;6.80;4.57;;;;;;;19.24;75.04;99179.94;5051537;28;20025;-70
2022/06/13 00:27:48;;;;;;;4.60;4.20;;;;;;;19.25;75.51;99181.56;5054402;28;20064;-70
2022/06/13 00:30:14;;;;;;;4.57;4.18;;;;;;;19.04;76.74;99174.63;5052720;28;20029;-70
2022/06/13 00:32:39;;;;;;;4.75;4.10;;;;;;;18.82;77.38;99188.66;5052569;28;20044;-69
2022/06/13 00:35:05;;;;;;;10.50;4.40;;;;;;;18.66;77.12;99189.81;5052894;28;20032;-70
2022/06/13 00:37:31;;;;;;;4.63;4.15;;;;;;;18.65;78.18;99196.69;5053931;28;20039;-70
2022/06/13 00:39:56;;;;;;;5.25;4.60;;;;;;;18.71;77.71;99196.34;5053101;28;20037;-70
2022/06/13 00:42:25;;;;;;;7.22;3.80;;;;;;;18.43;79.19;99181.63;5052681;28;20033;-70
2022/06/13 00:45:09;;;;;;;7.72;4.95;;;;;;;18.36;79.83;99176.72;5052689;28;20112;-70
2022/06/13 00:47:37;;;;;;;8.88;4.43;;;;;;;18.31;78.97;99167.81;5052609;28;20201;-69
2022/06/13 00:50:06;;;;;;;6.20;3.50;;;;;;;18.36;79.65;99171.06;5053230;28;20464;-70
2022/06/13 00:52:45;;;;;;;6.20;3.97;;;;;;;18.13;79.45;99171.31;5052379;28;20021;-69
2022/06/13 00:55:22;;;;;;;7.25;4.18;;;;;;;18.23;79.40;99181.09;5054001;28;20099;-69
2022/06/13 00:57:48;;;;;;;6.40;4.63;;;;;;;18.18;79.38;99170.13;5052584;28;20380;-70
2022/06/13 01:00:17;;;;;;;5.03;4.07;;;;;;;18.27;79.36;99175.44;5049818;28;20103;-70
2022/06/13 01:02:46;;;;;;;7.82;3.78;;;;;;;18.44;78.75;99171.91;5053734;28;20044;-71
2022/06/13 01:05:16;;;;;;;9.50;4.43;;;;;;;18.38;78.53;99165.81;5051665;28;20029;-70
2022/06/13 01:07:42;;;;;;;6.90;3.75;;;;;;;18.31;79.37;99160.09;5053412;28;20416;-70
2022/06/13 01:12:52;;;;;;;5.28;4.70;;;;;;;18.51;78.32;99148.50;5053728;28;20396;-70
2022/06/13 01:15:48;;;;;;;6.90;5.75;;;;;;;18.44;77.95;99149.28;5053257;28;20021;-70
2022/06/13 01:18:25;;;;;;;5.10;4.60;;;;;;;18.56;77.98;99165.09;5033288;28;20032;-70
2022/06/13 01:21:06;;;;;;;4.40;4.00;;;;;;;18.58;76.97;99167.53;5033311;28;20034;-70
2022/06/13 01:23:44;;;;;;;7.80;4.88;;;;;;;18.70;77.01;99170.03;5033514;28;20021;-69
2022/06/13 01:26:58;;;;;;;5.68;3.63;;;;;;;18.67;76.50;99179.31;5044875;28;20051;-70
2022/06/13 01:30:02;;;;;;;4.53;3.90;;;;;;;18.69;76.85;99178.91;5053141;28;20048;-69
2022/06/13 01:32:30;;;;;;;5.85;3.90;;;;;;;18.84;76.38;99188.28;5042754;28;20476;-69
2022/06/13 01:35:01;;;;;;;5.32;4.13;;;;;;;18.88;76.05;99177.75;5050665;28;20063;-70
2022/06/13 01:37:44;;;;;;;5.47;3.72;;;;;;;18.97;75.51;99188.75;5053004;28;20029;-70
2022/06/13 01:40:29;;;;;;;4.68;3.70;;;;;;;19.05;75.40;99179.06;5051552;28;20503;-70
2022/06/13 01:43:11;;;;;;;5.93;3.75;;;;;;;19.15;74.83;99189.63;5052762;28;20028;-70
2022/06/13 01:45:50;;;;;;;8.93;4.10;;;;;;;18.99;75.31;99192.00;5049973;28;20025;-70
2022/06/13 01:48:36;;;;;;;14.88;4.30;;;;;;;18.89;76.01;99194.38;5051435;28;20387;-70
2022/06/13 01:51:20;;;;;;;3.72;3.42;;;;;;;18.91;75.92;99202.50;5051327;28;20024;-70
2022/06/13 01:54:00;;;;;;;5.63;3.50;;;;;;;18.88;75.52;99197.59;5052546;28;20017;-70
2022/06/13 01:57:02;;;;;;;4.32;3.92;;;;;;;19.02;75.93;99200.53;5052480;28;20098;-70
2022/06/13 01:59:56;;;;;;;4.50;3.22;;;;;;;18.84;76.72;99202.44;5050976;28;20049;-69
2022/06/13 02:02:56;;;;;;;6.68;3.60;;;;;;;18.40;77.82;99207.06;5050860;28;20116;-71
2022/06/13 02:05:52;;;;;;;4.35;3.72;;;;;;;18.62;77.42;99197.50;5052239;28;20052;-70
2022/06/13 02:08:28;;;;;;;5.10;3.83;;;;;;;18.70;77.82;99189.03;5052214;28;20033;-69
2022/06/13 02:11:04;;;;;;;4.50;3.85;;;;;;;18.64;78.89;99197.91;5051160;28;20093;-69
2022/06/13 02:13:57;;;;;;;5.85;4.28;;;;;;;18.61;78.29;99184.56;5052255;28;20021;-70
2022/06/13 02:16:33;;;;;;;11.48;4.05;;;;;;;18.82;77.57;99182.22;5051457;28;20051;-70
2022/06/13 02:19:24;;;;;;;9.13;4.45;;;;;;;18.70;76.81;99191.84;5052078;28;20415;-70
2022/06/13 02:21:56;;;;;;;7.63;4.07;;;;;;;18.55;76.85;99186.13;5050768;28;20119;-69
2022/06/13 02:24:25;;;;;;;11.82;4.07;;;;;;;18.43;77.92;99189.28;5049809;28;20036;-69
2022/06/13 02:26:56;;;;;;;9.20;4.05;;;;;;;18.57;77.44;99189.38;5051946;28;20052;-69
2022/06/13 02:29:28;;;;;;;8.18;3.85;;;;;;;18.59;77.38;99186.97;5050642;28;20029;-70
2022/06/13 02:32:04;;;;;;;28.90;5.65;;;;;;;18.72;77.12;99190.25;5050486;28;20400;-71
2022/06/13 02:34:42;;;;;;;20.38;4.45;;;;;;;18.52;76.83;99181.25;5031958;28;20061;-69
2022/06/13 02:37:30;;;;;;;14.30;4.43;;;;;;;18.37;77.53;99188.84;5031984;28;20030;-70
2022/06/13 02:40:08;;;;;;;9.85;4.28;;;;;;;18.30;78.24;99192.44;5031862;28;20029;-69
2022/06/13 02:43:02;;;;;;;6.80;3.92;;;;;;;18.35;78.08;99191.28;5036284;28;20121;-70
2022/06/13 02:45:31;;;;;;;6.05;3.92;;;;;;;18.46;78.19;99191.31;5021808;28;20047;-69
2022/06/13 02:48:05;;;;;;;8.55;4.32;;;;;;;18.36;78.05;99192.91;5050367;28;20120;-70
2022/06/13 02:50:42;;;;;;;9.63;5.47;;;;;;;18.27;78.68;99195.25;5051616;28;20498;-69
2022/06/13 02:53:30;;;;;;;15.73;6.28;;;;;;;18.22;79.33;99200.09;5051766;28;20025;-69
2022/06/13 02:56:29;;;;;;;8.10;5.72;;;;;;;18.29;79.01;99204.19;5048909;28;20025;-69
2022/06/13 02:59:10;;;;;;;7.77;6.03;;;;;;;17.99;79.98;99205.97;5049310;28;20519;-69
2022/06/13 03:01:39;;;;;;;7.70;5.82;;;;;;;18.00;79.68;99206.75;5048325;28;20174;-71
2022/06/13 03:04:33;;;;;;;5.88;4.38;;;;;;;18.06;79.05;99206.03;5030101;28;20098;-69
2022/06/13 03:07:11;;;;;;;10.02;4.80;;;;;;;18.04;78.85;99208.44;5045491;28;20068;-69
2022/06/13 03:09:45;;;;;;;7.45;4.47;;;;;;;17.96;79.04;99209.56;5049971;28;20454;-70
2022/06/13 03:12:27;;;;;;;5.32;4.50;;;;;;;17.92;78.57;99205.91;5051480;28;20035;-70
2022/06/13 03:15:09;;;;;;;9.43;4.10;;;;;;;17.92;78.90;99212.38;5049222;28;20029;-69
2022/06/13 03:17:46;;;;;;;11.30;4.65;;;;;;;18.01;79.02;99212.03;5050863;28;20512;-70
2022/06/13 03:20:19;;;;;;;9.48;5.38;;;;;;;18.08;78.07;99214.16;5051029;28;20040;-70
2022/06/13 03:23:11;;;;;;;4.70;4.05;;;;;;;17.80;79.78;99216.31;5051482;28;20028;-70
2022/06/13 03:26:01;;;;;;;10.43;4.18;;;;;;;17.62;80.58;99216.16;5051215;28;20040;-69
2022/06/13 03:28:40;;;;;;;6.57;4.88;;;;;;;17.59;80.64;99193.47;5047350;28;20352;-69
2022/06/13 03:31:15;;;;;;;18.70;5.40;;;;;;;17.64;81.22;99210.13;5050226;28;20029;-69
2022/06/13 03:33:44;;;;;;;6.68;4.80;;;;;;;17.63;81.59;99211.31;5045206;28;20037;-69
2022/06/13 03:36:19;;;;;;;5.07;4.28;;;;;;;17.74;81.24;99217.88;5031433;28;20443;-69
2022/06/13 03:38:50;;;;;;;7.13;4.57;;;;;;;17.74;80.95;99217.88;5029984;28;20044;-70
2022/06/13 03:41:21;;;;;;;5.35;4.40;;;;;;;17.82;80.82;99216.72;5045997;28;20048;-69
2022/06/13 03:43:48;;;;;;;;;;;;;;;17.89;81.00;99212.34;5048655;28;20112;-70
2022/06/13 03:46:19;;;;;;;5.95;4.45;;;;;;;17.82;80.86;99208.25;5055329;28;19913;-69
2022/06/13 03:48:49;;;;;;;8.82;4.90;;;;;;;17.83;81.30;99212.69;5041711;28;20126;-70
2022/06/13 03:51:42;;;;;;;12.95;4.90;;;;;;;17.87;81.92;99212.72;5049707;28;20070;-69
2022/06/13 03:54:36;;;;;;;6.53;4.60;;;;;;;17.91;81.85;99205.06;5039017;28;20446;-74
2022/06/13 03:57:09;;;;;;;10.55;4.65;;;;;;;17.93;82.08;99218.84;5040904;28;20041;-70
2022/06/13 03:59:56;;;;;;;5.95;4.93;;;;;;;18.08;81.67;99214.16;5046658;28;20128;-71
2022/06/13 04:02:27;;;;;;;9.85;5.25;;;;;;;18.14;81.05;99206.91;5048022;28;20041;-70
2022/06/13 04:04:53;;;;;;;12.45;5.03;;;;;;;18.16;81.52;99213.00;5047137;28;20044;-71
2022/06/13 04:07:20;;;;;;;11.00;5.85;;;;;;;18.13;81.35;99201.66;5054329;28;20111;-69
2022/06/13 04:09:48;;;;;;;7.32;5.40;;;;;;;18.32;81.02;99218.34;5051256;28;20126;-71
2022/06/13 04:12:20;;;;;;;9.10;5.38;;;;;;;18.39;80.68;99223.25;5054225;28;20483;-70
2022/06/13 04:15:10;;;;;;;7.75;5.05;;;;;;;18.42;80.66;99227.31;5054092;28;20028;-70
2022/06/13 04:18:05;;;;;;;10.98;4.75;;;;;;;18.43;80.37;99223.28;5049317;28;20033;-70
2022/06/13 04:21:08;;;;;;;5.88;4.47;;;;;;;18.46;80.52;99220.47;5052435;28;20035;-69
2022/06/13 04:23:45;;;;;;;6.88;5.18;;;;;;;18.60;79.82;99222.59;5054457;28;20052;-69
2022/06/13 04:26:18;;;;;;;13.95;5.75;;;;;;;18.46;81.61;99217.63;5053273;28;20491;-70
2022/06/13 04:28:59;;;;;;;12.45;6.55;;;;;;;18.38;81.49;99208.28;5051642;28;20017;-70
2022/06/13 04:31:29;;;;;;;8.90;5.25;;;;;;;18.52;80.54;99209.56;5052127;28;20025;-71
2022/06/13 04:34:01;;;;;;;6.38;5.50;;;;;;;18.70;79.00;99212.50;5052941;28;20025;-70
2022/06/13 04:36:31;;;;;;;10.13;5.35;;;;;;;18.85;77.82;99216.22;5052910;28;20051;-70
2022/06/13 04:39:00;;;;;;;9.60;4.37;;;;;;;18.92;75.73;99201.28;5052473;28;20534;-70
2022/06/13 04:41:30;;;;;;;8.65;5.22;;;;;;;19.14;74.45;99224.88;5053908;28;20489;-69
2022/06/13 04:43:59;;;;;;;9.00;4.63;;;;;;;19.30;74.43;99232.19;5044848;28;20556;-70
2022/06/13 04:46:28;;;;;;;10.25;4.43;;;;;;;19.35;73.92;99211.97;5034080;28;20026;-69
2022/06/13 04:48:57;;;;;;;5.10;4.50;;;;;;;19.60;73.72;99222.53;5047064;28;20479;-70
2022/06/13 04:51:31;;;;;;;5.93;4.30;;;;;;;19.71;72.27;99214.88;5053904;28;20531;-70
2022/06/13 04:54:06;;;;;;;9.02;4.55;;;;;;;19.73;72.06;99220.94;5051778;28;20036;-69
2022/06/13 04:56:33;;;;;;;5.65;4.97;;;;;;;19.80;72.85;99217.28;5053131;28;20090;-70
2022/06/13 04:58:59;;;;;;;5.30;4.60;;;;;;;19.96;71.62;99216.94;5052369;28;20064;-70
2022/06/13 05:01:47;;;;;;;4.72;4.32;;;;;;;20.11;70.62;99220.59;5053327;28;20108;-70
2022/06/13 05:04:18;;;;;;;11.25;4.95;;;;;;;20.19;70.38;99221.38;5052273;28;20025;-70
2022/06/13 05:06:47;;;;;;;7.53;4.57;;;;;;;20.13;69.94;99217.31;5053737;28;20419;-69
2022/06/13 05:09:35;;;;;;;6.95;4.55;;;;;;;20.16;69.83;99220.16;5052818;28;20021;-71
2022/06/13 05:12:23;;;;;;;10.82;5.40;;;;;;;20.37;70.96;99224.19;5053095;28;20036;-70
2022/06/13 05:14:56;;;;;;;5.28;3.92;;;;;;;20.38;70.82;99214.47;5051853;28;20422;-70
2022/06/13 05:17:49;;;;;;;5.60;4.60;;;;;;;20.50;68.91;99216.03;5052719;28;20052;-70
2022/06/13 05:20:17;;;;;;;8.32;4.60;;;;;;;20.60;69.36;99215.22;5050033;28;20036;-70
2022/06/13 05:22:50;;;;;;;13.35;5.47;;;;;;;20.65;68.11;99213.19;5050122;28;20025;-69
2022/06/13 05:25:35;;;;;;;8.82;4.85;;;;;;;20.70;68.77;99212.75;5051320;28;20032;-70
2022/06/13 05:28:01;;;;;;;6.45;4.32;;;;;;;20.74;67.88;99199.34;5051008;28;20025;-70
2022/06/13 05:30:27;;;;;;;7.60;4.25;;;;;;;20.83;67.70;99211.13;5046107;28;20100;-70
2022/06/13 05:32:54;;;;;;;5.10;4.53;;;;;;;20.91;68.23;99214.72;5031220;28;20028;-71
2022/06/13 05:35:24;;;;;;;6.07;4.93;;;;;;;20.91;67.90;99214.72;5047160;28;20418;-71
2022/06/13 05:37:51;;;;;;;6.90;4.05;;;;;;;20.98;67.51;99205.38;5044238;28;20450;-70
2022/06/13 05:40:20;;;;;;;6.10;3.58;;;;;;;21.11;66.93;99220.72;5047625;28;20106;-70
2022/06/13 05:42:47;;;;;;;9.13;4.28;;;;;;;21.26;67.37;99218.63;5049927;28;20090;-70
2022/06/13 05:45:18;;;;;;;10.52;4.30;;;;;;;21.38;65.48;99220.22;5045728;28;20033;-70
2022/06/13 05:47:46;;;;;;;10.93;4.78;;;;;;;21.42;65.84;99220.19;5044442;28;20040;-70
2022/06/13 05:50:17;;;;;;;17.17;4.70;;;;;;;21.58;66.11;99222.50;5046864;28;20031;-71
2022/06/13 05:52:43;;;;;;;11.90;4.65;;;;;;;21.58;64.62;99211.94;5041891;28;20032;-71
2022/06/13 05:55:09;;;;;;;6.93;4.00;;;;;;;21.79;64.68;99229.31;5049757;28;20047;-70
2022/06/13 05:57:36;;;;;;;12.23;5.03;;;;;;;21.78;64.46;99213.47;5051352;28;20474;-70
2022/06/13 06:00:03;;;;;;;5.88;4.32;;;;;;;21.91;63.05;99208.88;5049824;28;20045;-71
2022/06/13 06:02:29;;;;;;;6.10;4.45;;;;;;;21.91;62.80;99217.44;5050005;28;20035;-73
2022/06/13 06:04:54;;;;;;;10.50;4.40;;;;;;;22.09;64.03;99225.81;5052289;28;20407;-72
2022/06/13 06:07:20;;;;;;;12.10;4.85;;;;;;;22.16;62.53;99228.63;5051786;28;20091;-72
2022/06/13 06:09:45;;;;;;;7.05;4.43;;;;;;;22.13;62.28;99217.25;5049225;28;20037;-70
2022/06/13 06:12:11;;;;;;;13.20;4.45;;;;;;;22.28;63.50;99201.63;5050590;28;20040;-71
2022/06/13 06:14:36;;;;;;;9.05;5.45;;;;;;;22.41;63.05;99207.63;5049201;28;20032;-70
2022/06/13 06:17:02;;;;;;;6.22;4.45;;;;;;;22.52;63.01;99201.03;5050593;28;20029;-70
2022/06/13 06:19:28;;;;;;;7.32;4.25;;;;;;;22.49;61.46;99199.84;5051103;28;20033;-70
2022/06/13 06:21:53;;;;;;;7.88;4.10;;;;;;;22.58;62.84;99214.41;5051018;28;20029;-73
2022/06/13 06:24:18;;;;;;;5.05;3.97;;;;;;;22.66;61.00;99200.03;5046898;28;20032;-71
2022/06/13 06:26:44;;;;;;;10.77;4.53;;;;;;;22.69;61.10;99208.56;5050470;28;20064;-71
2022/06/13 06:29:11;;;;;;;17.15;4.60;;;;;;;22.86;61.63;99221.00;5050807;28;20028;-71
2022/06/13 06:31:36;;;;;;;6.97;3.50;;;;;;;22.84;61.13;99200.66;5051224;28;20033;-70
2022/06/13 06:34:02;;;;;;;8.18;4.47;;;;;;;22.94;61.07;99223.78;5050144;28;20052;-71
2022/06/13 06:36:28;;;;;;;5.78;3.63;;;;;;;23.03;60.72;99223.25;5049074;28;20465;-71
2022/06/13 06:38:54;;;;;;;7.70;4.35;;;;;;;23.04;59.79;99217.09;5046865;28;20036;-71
2022/06/13 06:41:19;;;;;;;7.57;4.13;;;;;;;23.29;62.07;99227.44;5047418;28;20427;-71
2022/06/13 06:43:44;;;;;;;4.90;4.05;;;;;;;23.28;59.82;99235.16;5049737;28;20100;-71
2022/06/13 06:46:11;;;;;;;13.30;3.80;;;;;;;23.34;59.06;99226.94;5048263;28;20040;-71
2022/06/13 06:48:37;;;;;;;9.63;4.07;;;;;;;23.42;58.97;99225.59;5045569;28;20115;-71
2022/06/13 06:51:06;;;;;;;4.30;3.90;;;;;;;23.48;59.05;99233.69;5051122;28;20104;-70
2022/06/13 06:59:53;;;;;;;9.13;4.68;;;;;;;23.54;58.24;99227.06;5047710;28;20020;-71
2022/06/13 07:01:46;;;;;;;7.82;4.60;;;;;;;23.80;58.49;99220.97;5038351;28;20111;-71
2022/06/13 07:04:11;;;;;;;4.65;4.25;;;;;;;23.76;57.12;99214.50;5043396;28;20029;-70
2022/06/13 07:06:38;;;;;;;10.20;4.38;;;;;;;23.81;56.31;99214.03;5047934;28;20383;-70
2022/06/13 07:09:04;;;;;;;8.23;4.60;;;;;;;23.87;56.42;99217.19;5049949;28;20083;-71
2022/06/13 07:14:15;;;;;;;8.77;5.13;;;;;;;24.01;56.12;99201.84;5039687;28;20044;-69
2022/06/13 07:16:40;;;;;;;9.68;4.50;;;;;;;23.96;56.47;99203.19;5049499;28;20021;-74
2022/06/13 07:19:06;;;;;;;5.07;4.15;;;;;;;24.20;57.82;99209.72;5050006;28;20059;-73
2022/06/13 07:21:32;;;;;;;7.75;4.43;;;;;;;24.38;56.58;99209.41;5048732;28;20025;-73
2022/06/13 07:23:58;;;;;;;5.43;4.25;;;;;;;24.30;56.86;99210.75;5058370;28;20028;-74
2022/06/13 07:26:23;;;;;;;7.57;4.40;;;;;;;24.28;56.45;99212.47;5049590;28;20404;-73
2022/06/13 07:28:49;;;;;;;17.92;4.53;;;;;;;24.44;57.01;99212.56;5051321;28;20049;-73
2022/06/13 07:31:23;;;;;;;16.92;4.50;;;;;;;24.52;55.21;99211.19;5050513;28;20025;-75
2022/06/13 07:33:50;;;;;;;17.15;4.82;;;;;;;24.60;55.42;99213.88;5051216;28;20156;-76
2022/06/13 07:36:16;;;;;;;7.80;4.93;;;;;;;24.74;56.04;99219.34;5046740;28;20029;-73
2022/06/13 07:38:42;;;;;;;5.57;3.88;;;;;;;24.73;52.65;99216.91;5050516;28;20122;-74
2022/06/13 07:41:12;;;;;;;10.32;4.38;;;;;;;24.85;54.16;99221.19;5048079;28;20024;-73
2022/06/13 07:43:37;;;;;;;;;;;;;;;24.94;53.25;99227.13;5050234;28;20412;-74
2022/06/13 07:46:06;;;;;;;7.32;4.93;;;;;;;25.14;55.16;99218.53;5054431;28;19913;-73
2022/06/13 07:48:32;;;;;;;4.90;4.40;;;;;;;24.89;56.11;99219.09;5052327;28;20025;-74
2022/06/13 07:50:59;;;;;;;5.68;4.38;;;;;;;25.22;55.56;99219.22;5051723;28;20079;-75
2022/06/13 07:53:26;;;;;;;8.20;5.18;;;;;;;25.17;55.10;99208.28;5051616;28;20082;-77
2022/06/13 07:55:51;;;;;;;7.90;4.75;;;;;;;25.20;52.56;99215.97;5051649;28;20039;-74
2022/06/13 07:58:31;;;;;;;6.97;3.97;;;;;;;25.43;53.36;99217.94;5051672;28;20403;-76
2022/06/13 08:00:57;;;;;;;6.97;4.22;;;;;;;25.22;50.07;99219.22;5048920;28;20095;-76
2022/06/13 08:03:25;;;;;;;5.68;4.28;;;;;;;25.38;52.52;99222.13;5052395;28;20053;-76
2022/06/13 08:05:51;;;;;;;4.93;4.45;;;;;;;25.55;51.98;99219.31;5051323;28;20452;-75
2022/06/13 08:08:18;;;;;;;6.20;4.45;;;;;;;25.60;52.56;99223.72;5052087;28;20486;-75
2022/06/13 08:10:45;;;;;;;6.78;4.68;;;;;;;25.77;52.40;99219.63;5053548;28;20023;-76
2022/06/13 08:13:14;;;;;;;8.55;4.22;;;;;;;25.93;52.36;99224.53;5053401;28;20040;-75
2022/06/13 08:15:39;;;;;;;6.00;4.82;;;;;;;26.01;51.91;99215.78;5049759;28;20048;-75
2022/06/13 08:18:05;;;;;;;8.15;4.18;;;;;;;25.90;49.92;99216.84;5051751;28;20427;-75
2022/06/13 08:20:32;;;;;;;5.07;4.57;;;;;;;26.00;52.01;99212.09;5045951;28;20478;-73
2022/06/13 08:22:59;;;;;;;9.35;5.15;;;;;;;25.97;49.33;99210.13;5044320;28;20035;-76
2022/06/13 08:25:28;;;;;;;9.20;5.20;;;;;;;26.10;53.00;99213.09;5045619;28;20033;-76
2022/06/13 08:27:55;;;;;;;6.95;4.50;;;;;;;25.98;50.55;99199.50;5052524;28;20100;-76
2022/06/13 08:30:21;;;;;;;11.35;4.57;;;;;;;25.97;49.77;99215.06;5051018;28;20487;-76
2022/06/13 08:32:47;;;;;;;10.20;4.45;;;;;;;26.10;51.96;99197.94;5053612;28;20033;-76
2022/06/13 08:35:14;;;;;;;11.23;5.20;;;;;;;26.15;51.24;99203.94;5051611;28;20116;-76
2022/06/13 08:37:39;;;;;;;8.32;5.50;;;;;;;26.02;51.49;99214.50;5050472;28;20036;-71
2022/06/13 08:40:05;;;;;;;10.27;5.03;;;;;;;26.03;50.78;99207.53;5046118;28;20387;-73
2022/06/13 08:42:45;;;;;;;6.28;5.38;;;;;;;26.03;51.84;99196.88;5052382;28;20098;-74
2022/06/13 08:45:11;;;;;;;5.45;4.82;;;;;;;26.11;48.88;99206.09;5051552;28;20032;-72
2022/06/13 08:47:59;;;;;;;6.32;5.07;;;;;;;26.07;47.83;99209.06;5051416;28;20048;-73
2022/06/13 08:50:47;;;;;;;14.07;5.65;;;;;;;26.27;48.71;99202.44;5050814;28;20407;-72
2022/06/13 08:53:21;;;;;;;7.10;4.78;;;;;;;26.24;45.98;99202.53;5036197;28;20036;-71
2022/06/13 08:55:54;;;;;;;11.15;5.28;;;;;;;26.41;49.67;99209.84;5053125;28;20025;-72
2022/06/13 08:59:24;;;;;;;5.93;4.53;;;;;;;26.49;49.75;99211.28;5068248;28;20107;-72
2022/06/13 09:01:58;;;;;;;5.32;4.68;;;;;;;26.41;48.62;99209.84;4990707;28;20425;-72
2022/06/13 09:04:30;;;;;;;7.57;5.20;;;;;;;26.40;48.14;99205.38;5048147;28;20094;-72
2022/06/13 09:07:15;;;;;;;8.25;4.93;;;;;;;26.62;48.40;99213.38;5053148;28;20029;-72
2022/06/13 09:09:45;;;;;;;9.00;5.47;;;;;;;26.77;46.83;99214.59;5048798;28;20029;-73
2022/06/13 09:12:34;;;;;;;8.13;5.65;;;;;;;27.07;47.01;99219.53;5051498;28;20064;-73
2022/06/13 09:15:03;;;;;;;8.75;5.38;;;;;;;27.19;45.66;99215.91;5020717;28;20037;-72
2022/06/13 09:17:55;;;;;;;9.02;5.03;;;;;;;26.95;42.96;99210.44;5052574;28;20496;-72
2022/06/13 09:20:30;;;;;;;11.07;4.70;;;;;;;26.82;44.83;99221.84;5036394;28;20412;-73
2022/06/13 09:23:07;;;;;;;26.60;5.82;;;;;;;26.96;44.53;99217.78;5052660;28;20033;-72
2022/06/13 09:25:43;;;;;;;10.55;5.70;;;;;;;27.00;44.14;99215.59;5051540;28;20025;-72
2022/06/13 09:28:19;;;;;;;9.15;4.50;;;;;;;27.16;43.62;99228.28;5048748;28;20044;-72
2022/06/13 09:30:52;;;;;;;6.10;5.50;;;;;;;27.25;44.37;99219.78;5050599;28;20017;-72
2022/06/13 09:33:34;;;;;;;7.15;5.18;;;;;;;27.38;44.14;99234.19;5031625;28;20033;-72
2022/06/13 09:36:04;;;;;;;9.75;6.30;;;;;;;27.68;43.76;99231.25;5049940;28;20028;-72
2022/06/13 09:38:36;;;;;;;5.60;4.80;;;;;;;27.78;39.76;99238.72;5051332;28;20108;-72
2022/06/13 09:41:02;;;;;;;14.60;5.75;;;;;;;28.06;41.05;99230.41;5051375;28;20385;-71
2022/06/13 09:44:05;;;;;;;10.35;5.45;;;;;;;28.10;40.36;99228.22;5058514;28;20043;-72
2022/06/13 09:47:19;;;;;;;8.80;5.25;;;;;;;28.24;40.29;99229.84;5046901;28;20059;-71
2022/06/13 09:50:01;;;;;;;8.43;5.45;;;;;;;28.35;43.29;99222.91;4970512;28;20042;-71
2022/06/13 09:52:45;;;;;;;7.90;5.25;;;;;;;28.58;40.21;99218.81;5040005;28;20110;-70
2022/06/13 09:55:24;;;;;;;6.82;4.85;;;;;;;28.57;40.31;99217.19;5041925;28;20032;-72
2022/06/13 09:58:06;;;;;;;8.73;5.28;;;;;;;27.63;41.53;99206.78;5050867;28;20025;-71
2022/06/13 10:00:41;;;;;;;11.23;5.65;;;;;;;27.83;43.32;99211.50;5049014;28;20052;-71
2022/06/13 10:03:10;;;;;;;5.82;4.78;;;;;;;28.30;40.52;99216.50;5050462;28;20087;-72
2022/06/13 10:05:43;;;;;;;5.47;4.85;;;;;;;28.01;41.38;99222.38;5050733;28;20032;-72
2022/06/13 10:08:31;;;;;;;6.70;5.57;;;;;;;27.92;41.40;99219.41;5048923;28;20380;-72
2022/06/13 10:11:12;;;;;;;6.55;4.95;;;;;;;27.94;41.82;99208.25;5051317;28;20032;-72
2022/06/13 10:13:58;;;;;;;15.15;6.18;;;;;;;28.39;43.76;99214.97;5034291;28;20036;-72
2022/06/13 10:17:17;;;;;;;11.20;6.40;;;;;;;28.57;40.28;99202.81;5050131;28;20028;-73
2022/06/13 10:20:10;;;;;;;14.15;5.03;;;;;;;28.19;41.60;99209.50;4967655;28;20049;-71
2022/06/13 10:23:17;;;;;;;13.20;5.68;;;;;;;28.26;42.56;99206.38;5050665;28;20032;-72
2022/06/13 10:26:09;;;;;;;9.85;5.88;;;;;;;28.17;43.58;99205.03;5048877;28;20025;-71
2022/06/13 10:28:37;;;;;;;8.85;5.75;;;;;;;28.19;39.63;99204.56;5038285;28;20025;-73
2022/06/13 10:31:22;;;;;;;12.35;5.78;;;;;;;28.48;39.93;99199.84;5048635;28;20053;-72
2022/06/13 10:34:13;;;;;;;8.23;6.00;;;;;;;28.28;42.27;99200.97;5045187;28;20041;-73
2022/06/13 10:37:10;;;;;;;5.95;5.03;;;;;;;27.81;38.94;99203.31;5048234;28;20028;-73
2022/06/13 10:39:36;;;;;;;7.68;5.68;;;;;;;28.29;38.60;99193.94;5057715;28;20486;-74
2022/06/13 10:42:09;;;;;;;6.78;5.30;;;;;;;28.51;39.03;99193.97;5051431;28;20596;-73
2022/06/13 10:44:37;;;;;;;6.40;5.10;;;;;;;29.03;39.50;99184.31;5050732;28;20029;-73
2022/06/13 10:47:28;;;;;;;8.40;5.00;;;;;;;29.06;38.37;99186.25;5051130;28;20159;-73
2022/06/13 10:50:07;;;;;;;5.63;4.97;;;;;;;29.16;38.70;99182.16;5038511;28;20013;-74
2022/06/13 10:52:37;;;;;;;7.13;5.32;;;;;;;29.25;37.75;99172.75;5042761;28;20026;-73
2022/06/13 10:55:09;;;;;;;5.78;5.20;;;;;;;29.35;36.62;99177.31;5039115;28;20021;-74
2022/06/13 10:57:46;;;;;;;8.52;5.90;;;;;;;29.32;36.87;99171.69;5038889;28;20022;-73
2022/06/13 11:00:17;;;;;;;10.15;6.50;;;;;;;29.38;38.35;99173.50;5046380;28;20037;-74
2022/06/13 11:02:44;;;;;;;9.27;6.18;;;;;;;29.52;37.06;99166.38;5045273;28;20078;-74
2022/06/13 11:05:16;;;;;;;7.85;4.57;;;;;;;29.61;38.06;99170.56;5049973;28;20032;-74
2022/06/13 11:07:51;;;;;;;7.75;5.47;;;;;;;29.52;36.86;99163.50;5050103;28;20098;-73
2022/06/13 11:10:36;;;;;;;11.80;5.47;;;;;;;29.72;35.77;99156.53;5043793;28;20585;-74
2022/06/13 11:13:05;;;;;;;9.48;5.78;;;;;;;28.93;35.95;99161.22;5050510;28;20025;-74
2022/06/13 11:24:39;;;;;;;9.63;5.78;;;;;;;28.54;37.76;99137.59;5052060;28;20538;-74
2022/06/13 11:30:27;;;;;;;6.20;5.68;;;;;;;28.85;37.57;99125.41;5050503;28;20089;-73
2022/06/13 11:33:10;;;;;;;8.23;6.00;;;;;;;29.11;39.46;99128.09;5022579;28;20036;-73
2022/06/13 11:35:58;;;;;;;8.32;5.60;;;;;;;29.39;36.79;99113.81;5041645;28;20028;-75
2022/06/13 11:38:34;;;;;;;12.30;5.35;;;;;;;29.41;37.69;99125.66;5052571;28;20098;-74
2022/06/13 11:41:20;;;;;;;16.70;6.10;;;;;;;29.74;38.88;99115.69;5034825;28;20029;-74
2022/06/13 11:43:51;;;;;;;8.32;6.18;;;;;;;29.70;36.06;99121.63;5048962;28;20029;-74
2022/06/13 11:46:23;;;;;;;9.38;5.78;;;;;;;29.62;36.00;99120.31;5041753;28;20510;-74
2022/06/13 11:48:50;;;;;;;8.88;6.40;;;;;;;29.39;35.44;99113.81;5046533;28;20076;-74
2022/06/13 11:51:26;;;;;;;9.70;6.10;;;;;;;29.32;36.82;99111.22;5045599;28;20040;-74
2022/06/13 11:53:55;;;;;;;10.52;6.32;;;;;;;29.50;36.51;99117.06;5044355;28;20029;-74
2022/06/13 11:56:29;;;;;;;12.10;6.57;;;;;;;29.87;34.86;99112.69;5048405;28;20425;-74
2022/06/13 11:58:59;;;;;;;7.95;5.78;;;;;;;30.17;34.64;99115.94;5048510;28;21052;-73
2022/06/13 12:01:38;;;;;;;8.10;6.10;;;;;;;30.20;35.19;99097.69;5048995;28;20029;-74
2022/06/13 12:04:13;;;;;;;12.40;6.85;;;;;;;30.29;34.87;99094.00;5029396;28;20583;-74
2022/06/13 12:07:19;;;;;;;12.05;6.25;;;;;;;30.32;36.10;99093.03;5038605;28;20232;-72
2022/06/13 12:09:52;;;;;;;8.48;5.72;;;;;;;30.14;33.80;99082.31;5038079;28;20065;-72
2022/06/13 12:12:18;;;;;;;6.43;5.78;;;;;;;30.17;34.92;99082.16;5050067;28;20025;-73
2022/06/13 12:14:44;;;;;;;7.45;6.07;;;;;;;30.36;34.80;99085.03;5049305;28;20024;-72
2022/06/13 12:17:17;;;;;;;11.50;6.43;;;;;;;30.18;34.41;99080.88;5046156;28;20088;-72
2022/06/13 12:20:03;;;;;;;6.93;6.07;;;;;;;29.91;35.26;99081.63;5046592;28;20111;-73
2022/06/13 12:22:34;;;;;;;9.65;6.60;;;;;;;29.73;33.87;99076.63;5041693;28;20484;-73
2022/06/13 12:25:12;;;;;;;7.70;6.28;;;;;;;30.21;35.08;99058.94;5048254;28;20035;-72
2022/06/13 12:27:58;;;;;;;9.80;6.40;;;;;;;30.36;34.21;99068.53;5064067;28;20025;-71
2022/06/13 12:30:51;;;;;;;8.55;6.13;;;;;;;30.47;33.87;99065.16;5031838;28;20080;-74